Time;durP1;ratioP1;P1;durP2;ratioP2;P2;SDS_P1;SDS_P2;PMS_P1;PMS_P2;Temp;Humidity;BMP_temperature;BMP_pressure;BME280_temperature;BME280_humidity;BME280_pressure;Samples;Min_cycle;Max_cycle;Signal;HPM_P1;HPM_P2
2022/02/05 00:02:55;;;;;;;1.70;1.50;;;3.80;99.90;;;;;;5106664;28;20402;-80
2022/02/05 00:05:26;;;;;;;1.95;1.80;;;3.90;99.90;;;;;;5113336;27;20479;-79
2022/02/05 00:08:09;;;;;;;5.22;4.60;;;3.80;99.90;;;;;;5107640;28;20907;-80
2022/02/05 00:40:39;;;;;;;5.25;4.03;;;3.80;99.90;;;;;;5111224;28;20452;-80
2022/02/05 00:43:02;;;;;;;5.88;4.13;;;3.80;99.90;;;;;;5112829;27;20398;-81
2022/02/05 00:45:32;;;;;;;7.47;4.55;;;3.90;99.90;;;;;;5115776;28;20728;-81
2022/02/05 00:48:00;;;;;;;5.50;3.97;;;4.00;99.90;;;;;;5095632;28;20401;-81
2022/02/05 00:50:27;;;;;;;5.28;3.92;;;4.00;99.90;;;;;;5126610;28;20385;-81
2022/02/05 00:53:11;;;;;;;6.40;4.43;;;4.10;99.90;;;;;;5089536;28;20398;-81
2022/02/05 00:55:41;;;;;;;8.00;4.43;;;4.00;99.90;;;;;;5100703;28;20392;-82
2022/02/05 00:58:07;;;;;;;7.45;4.38;;;4.10;99.90;;;;;;5093686;28;20385;-80
2022/02/05 01:00:35;;;;;;;7.28;4.43;;;4.10;99.90;;;;;;5123402;28;20853;-80
2022/02/05 01:03:01;;;;;;;10.85;4.82;;;4.20;99.90;;;;;;5114472;28;21212;-80
2022/02/05 01:05:27;;;;;;;8.83;4.63;;;4.20;99.90;;;;;;5112071;28;20874;-81
2022/02/05 01:07:56;;;;;;;9.20;4.32;;;4.20;99.90;;;;;;5096288;28;20511;-80
2022/02/05 01:10:25;;;;;;;8.80;4.40;;;4.30;99.90;;;;;;5100718;28;20380;-80
2022/02/05 01:12:56;;;;;;;10.67;4.70;;;4.20;99.90;;;;;;5107100;27;20482;-80
2022/02/05 01:15:32;;;;;;;8.38;4.43;;;4.20;99.90;;;;;;5116400;27;20763;-80
2022/02/05 01:18:02;;;;;;;9.18;4.53;;;4.30;99.90;;;;;;5123440;27;20465;-80
2022/02/05 01:21:03;;;;;;;9.07;4.68;;;4.30;99.90;;;;;;5101045;27;20388;-81
2022/02/05 01:23:50;;;;;;;10.85;4.90;;;4.30;99.90;;;;;;5132483;27;20414;-81
2022/02/05 01:26:41;;;;;;;7.63;4.13;;;4.30;99.90;;;;;;5089449;28;21204;-81
2022/02/05 01:31:49;;;;;;;7.07;4.10;;;4.40;99.90;;;;;;5106842;27;20365;-81
2022/02/05 01:34:27;;;;;;;10.13;4.50;;;4.40;99.90;;;;;;5126183;27;20441;-80
2022/02/05 01:55:36;;;;;;;12.23;4.03;;;4.40;99.90;;;;;;5116917;27;20386;-81
2022/02/05 02:11:47;;;;;;;11.65;4.50;;;3.90;99.90;;;;;;5100661;27;20431;-81
2022/02/05 02:19:37;;;;;;;12.30;4.85;;;3.90;99.90;;;;;;5095671;28;20428;-81
2022/02/05 02:22:11;;;;;;;10.90;4.47;;;3.80;99.90;;;;;;5076673;28;20415;-81
2022/02/05 02:27:28;;;;;;;11.13;4.88;;;3.90;99.90;;;;;;5095623;28;20886;-81
2022/02/05 02:32:26;;;;;;;9.40;4.07;;;4.10;99.90;;;;;;5114593;28;20390;-80
2022/02/05 02:34:56;;;;;;;11.60;4.97;;;4.10;99.90;;;;;;5096244;28;20473;-81
2022/02/05 02:37:30;;;;;;;14.20;4.78;;;4.10;99.90;;;;;;5099848;28;20600;-80
2022/02/05 02:40:12;;;;;;;9.80;4.25;;;4.20;99.90;;;;;;5076583;28;20385;-81
2022/02/05 02:42:43;;;;;;;10.38;4.57;;;4.20;99.90;;;;;;5082096;28;20810;-81
2022/02/05 02:45:09;;;;;;;11.10;4.47;;;4.40;99.90;;;;;;5091026;28;20862;-81
2022/02/05 02:47:37;;;;;;;14.93;4.68;;;4.30;99.90;;;;;;5099582;28;20470;-82
2022/02/05 02:50:09;;;;;;;11.90;4.35;;;4.40;99.90;;;;;;5114003;28;20406;-80
2022/02/05 02:58:25;;;;;;;10.35;4.10;;;4.50;99.90;;;;;;5095287;28;20901;-80
2022/02/05 03:00:56;;;;;;;11.88;4.15;;;4.40;99.90;;;;;;5096080;28;20382;-80
2022/02/05 03:03:21;;;;;;;12.00;4.25;;;4.50;99.90;;;;;;5094671;28;20841;-81
2022/02/05 03:05:47;;;;;;;13.07;4.50;;;4.60;99.90;;;;;;5083815;28;20455;-81
2022/02/05 03:08:13;;;;;;;9.25;4.18;;;4.60;99.90;;;;;;5103091;28;20382;-81
2022/02/05 03:10:39;;;;;;;7.75;3.67;;;4.60;99.90;;;;;;5095714;28;20880;-81
2022/02/05 03:13:04;;;;;;;8.82;4.22;;;4.50;99.90;;;;;;5108015;28;20391;-81
2022/02/05 03:15:38;;;;;;;7.17;3.77;;;4.60;99.90;;;;;;5117039;28;20396;-80
2022/02/05 03:18:12;;;;;;;10.95;4.05;;;4.70;99.90;;;;;;5107887;28;20403;-81
2022/02/05 03:20:38;;;;;;;10.38;4.20;;;4.70;99.90;;;;;;5107791;28;20390;-82
2022/02/05 03:23:04;;;;;;;12.13;4.07;;;4.70;99.90;;;;;;5104631;28;20391;-80
2022/02/05 03:25:31;;;;;;;10.23;4.40;;;4.60;99.90;;;;;;5107947;28;20415;-81
2022/02/05 03:27:58;;;;;;;7.65;3.88;;;4.80;99.90;;;;;;5083911;28;20396;-81
2022/02/05 03:30:24;;;;;;;9.57;4.20;;;4.70;99.90;;;;;;5091755;28;20487;-81
2022/02/05 03:32:50;;;;;;;9.30;4.10;;;4.70;99.90;;;;;;5092127;28;20392;-80
2022/02/05 03:35:15;;;;;;;12.90;4.53;;;4.70;99.90;;;;;;5104642;28;20383;-80
2022/02/05 03:37:41;;;;;;;10.38;4.60;;;4.60;99.90;;;;;;5085853;28;20492;-82
2022/02/05 03:40:08;;;;;;;10.60;5.07;;;4.60;99.90;;;;;;5114477;28;20375;-80
2022/02/05 03:42:34;;;;;;;9.82;5.03;;;4.50;99.90;;;;;;5094073;28;20878;-81
2022/02/05 03:45:00;;;;;;;9.82;5.15;;;4.50;99.90;;;;;;5091688;28;20416;-81
2022/02/05 03:47:30;;;;;;;12.48;5.65;;;4.50;99.90;;;;;;5093608;28;20894;-81
2022/02/05 03:49:56;;;;;;;10.27;5.23;;;4.50;99.90;;;;;;5110327;28;20483;-81
2022/02/05 03:52:21;;;;;;;10.60;5.30;;;4.50;99.90;;;;;;5093106;28;20419;-81
2022/02/05 03:54:47;;;;;;;11.73;5.70;;;4.50;99.90;;;;;;5079200;28;20395;-81
2022/02/05 03:57:13;;;;;;;11.60;5.45;;;4.50;99.90;;;;;;5093912;28;20412;-81
2022/02/05 03:59:38;;;;;;;11.37;5.80;;;4.50;99.90;;;;;;5097252;28;20431;-81
2022/02/05 04:02:04;;;;;;;9.93;5.27;;;4.60;99.90;;;;;;5096257;28;20384;-81
2022/02/05 04:04:30;;;;;;;10.97;5.40;;;4.60;99.90;;;;;;5097024;28;20808;-82
2022/02/05 04:06:56;;;;;;;12.33;5.77;;;4.60;99.90;;;;;;5101795;28;20417;-81
2022/02/05 04:09:27;;;;;;;12.02;5.40;;;4.60;99.90;;;;;;5099815;28;20445;-81
2022/02/05 04:15:53;;;;;;;13.50;6.13;;;4.60;99.90;;;;;;5079210;28;20434;-81
2022/02/05 04:17:25;;;;;;;17.08;6.43;;;4.50;99.90;;;;;;5112020;28;20389;-81
2022/02/05 04:19:51;;;;;;;14.70;6.30;;;4.50;99.90;;;;;;5082263;28;20390;-81
2022/02/05 04:22:17;;;;;;;12.35;6.10;;;4.50;99.90;;;;;;5092503;28;20385;-81
2022/02/05 04:24:43;;;;;;;12.15;5.70;;;4.50;99.90;;;;;;5106559;28;20431;-81
2022/02/05 04:27:10;;;;;;;12.52;6.47;;;4.50;99.90;;;;;;5094757;28;20429;-81
2022/02/05 04:29:36;;;;;;;12.35;6.43;;;4.50;99.90;;;;;;5101804;28;20396;-81
2022/02/05 04:32:03;;;;;;;13.18;6.05;;;4.60;99.90;;;;;;5106824;28;20402;-82
2022/02/05 04:34:29;;;;;;;11.98;5.90;;;4.60;99.90;;;;;;5075763;28;20438;-82
2022/02/05 04:36:55;;;;;;;14.40;6.43;;;4.60;99.90;;;;;;5097083;28;20385;-81
2022/02/05 04:39:22;;;;;;;12.32;6.47;;;4.60;99.90;;;;;;5076568;28;20396;-82
2022/02/05 04:41:57;;;;;;;13.65;6.03;;;4.60;99.90;;;;;;5096724;28;20981;-82
2022/02/05 04:52:03;;;;;;;13.30;6.60;;;4.40;99.90;;;;;;5112698;28;20833;-80
2022/02/05 04:54:49;;;;;;;15.10;6.40;;;4.30;99.90;;;;;;5104180;28;20417;-80
2022/02/05 05:02:34;;;;;;;13.48;5.68;;;4.40;99.90;;;;;;5121631;28;20366;-82
2022/02/05 05:13:08;;;;;;;10.80;5.35;;;4.40;99.90;;;;;;5115499;28;20737;-81
2022/02/05 05:20:55;;;;;;;11.32;5.55;;;4.20;99.90;;;;;;5109302;28;20494;-81
2022/02/05 05:23:21;;;;;;;9.10;5.30;;;4.10;99.90;;;;;;5116096;28;20924;-81
2022/02/05 05:25:46;;;;;;;9.53;5.30;;;4.10;99.90;;;;;;5095937;28;20378;-82
2022/02/05 05:28:12;;;;;;;10.83;5.53;;;3.90;99.90;;;;;;5106011;28;20751;-82
2022/02/05 05:30:38;;;;;;;9.93;5.43;;;4.00;99.90;;;;;;5118545;28;20512;-81
2022/02/05 05:33:04;;;;;;;14.70;6.03;;;4.00;99.90;;;;;;5119121;28;20920;-80
2022/02/05 05:35:30;;;;;;;13.37;5.87;;;3.90;99.90;;;;;;5115743;28;20406;-81
2022/02/05 05:37:55;;;;;;;13.87;6.40;;;3.90;99.90;;;;;;5100940;28;20394;-80
2022/02/05 05:40:21;;;;;;;10.50;5.40;;;3.90;99.90;;;;;;5119094;28;20374;-80
2022/02/05 05:42:58;;;;;;;12.30;5.82;;;3.90;99.90;;;;;;5116962;28;20390;-81
2022/02/05 05:45:50;;;;;;;13.63;5.77;;;3.80;99.90;;;;;;5094142;28;20447;-80
2022/02/05 05:48:26;;;;;;;11.25;5.45;;;3.80;99.90;;;;;;5104760;28;20397;-81
2022/02/05 05:50:58;;;;;;;10.73;5.13;;;3.80;99.90;;;;;;5100293;28;20442;-80
2022/02/05 05:53:25;;;;;;;14.35;5.78;;;3.80;99.90;;;;;;5111704;28;20794;-80
2022/02/05 05:55:51;;;;;;;12.93;5.57;;;3.80;99.90;;;;;;5117695;28;20378;-81
2022/02/05 05:58:19;;;;;;;13.80;5.67;;;3.80;99.90;;;;;;5089714;28;20807;-80
2022/02/05 06:00:45;;;;;;;10.20;5.38;;;3.80;99.90;;;;;;5098666;28;20483;-81
2022/02/05 06:03:12;;;;;;;11.00;5.32;;;3.80;99.90;;;;;;5119092;28;20371;-81
2022/02/05 06:05:37;;;;;;;11.15;5.55;;;3.70;99.90;;;;;;5099337;28;20398;-80
2022/02/05 06:08:05;;;;;;;7.70;4.80;;;3.90;99.90;;;;;;5117570;28;21055;-81
2022/02/05 06:10:31;;;;;;;14.65;5.50;;;4.00;99.90;;;;;;5096232;28;20456;-81
2022/02/05 06:12:56;;;;;;;12.43;5.55;;;4.10;99.90;;;;;;5099236;28;20372;-81
2022/02/05 06:15:22;;;;;;;10.52;5.15;;;4.20;99.90;;;;;;5095487;28;20585;-81
2022/02/05 06:17:50;;;;;;;12.85;5.40;;;4.30;99.90;;;;;;5077943;28;20389;-81
2022/02/05 06:20:16;;;;;;;10.55;5.22;;;4.40;99.90;;;;;;5093712;28;20399;-81
2022/02/05 06:22:41;;;;;;;13.67;5.53;;;4.50;99.90;;;;;;5109297;28;20466;-80
2022/02/05 06:25:08;;;;;;;11.32;6.00;;;4.70;99.90;;;;;;5102399;28;20408;-81
2022/02/05 06:27:33;;;;;;;11.07;6.25;;;4.40;99.90;;;;;;5113085;28;20379;-81
2022/02/05 06:29:59;;;;;;;12.80;6.07;;;4.40;99.90;;;;;;5113829;28;20451;-80
2022/02/05 06:32:24;;;;;;;10.35;6.22;;;4.40;99.90;;;;;;5103507;28;20391;-82
2022/02/05 06:34:50;;;;;;;14.33;6.80;;;4.40;99.90;;;;;;5096037;28;20444;-81
2022/02/05 06:37:18;;;;;;;9.43;6.03;;;4.30;99.90;;;;;;5112858;28;20379;-81
2022/02/05 06:39:44;;;;;;;9.93;5.40;;;4.30;99.90;;;;;;5115147;28;20386;-81
2022/02/05 06:42:09;;;;;;;10.20;5.80;;;4.40;99.90;;;;;;5112109;28;20388;-81
2022/02/05 06:44:35;;;;;;;11.93;5.90;;;4.10;99.90;;;;;;5095450;28;20414;-80
2022/02/05 06:47:00;;;;;;;8.88;5.00;;;4.00;99.90;;;;;;5111620;28;20463;-80
2022/02/05 06:49:28;;;;;;;7.43;4.20;;;3.90;99.90;;;;;;5090360;28;20385;-82
2022/02/05 06:51:54;;;;;;;10.05;4.93;;;3.80;99.90;;;;;;5107608;28;20396;-80
2022/02/05 06:54:19;;;;;;;8.05;4.90;;;3.60;99.90;;;;;;5093673;28;20704;-82
2022/02/05 06:56:45;;;;;;;7.75;4.18;;;3.40;99.90;;;;;;5093136;28;20373;-81
2022/02/05 06:59:10;;;;;;;5.87;3.40;;;3.30;99.90;;;;;;5090836;28;20437;-82
2022/02/05 07:01:36;;;;;;;5.57;3.13;;;3.20;99.90;;;;;;5091800;28;20404;-81
2022/02/05 07:04:04;;;;;;;5.17;2.80;;;3.10;99.90;;;;;;5091312;28;20483;-82
2022/02/05 07:06:30;;;;;;;3.90;2.80;;;3.10;99.90;;;;;;5101756;28;20387;-80
2022/02/05 07:08:55;;;;;;;4.95;2.80;;;3.00;99.90;;;;;;5111354;28;20420;-80
2022/02/05 07:11:21;;;;;;;6.30;2.70;;;3.10;99.90;;;;;;5110918;28;20402;-82
2022/02/05 07:13:49;;;;;;;6.15;2.67;;;3.00;99.90;;;;;;5113764;28;20378;-81
2022/02/05 07:16:20;;;;;;;4.90;2.97;;;2.90;99.90;;;;;;5102227;28;20392;-81
2022/02/05 07:19:17;;;;;;;4.30;3.10;;;2.80;99.90;;;;;;5092269;28;20445;-81
2022/02/05 07:21:36;;;;;;;6.25;3.78;;;2.80;99.90;;;;;;5104421;28;20526;-81
2022/02/05 07:29:16;;;;;;;6.47;3.35;;;3.00;99.90;;;;;;5109966;28;20429;-80
2022/02/05 07:31:43;;;;;;;5.80;3.00;;;3.00;99.90;;;;;;5110135;28;20407;-81
2022/02/05 07:34:09;;;;;;;7.05;3.10;;;3.10;99.90;;;;;;5110559;28;20394;-82
2022/02/05 07:36:35;;;;;;;4.95;3.25;;;3.20;99.90;;;;;;5103325;28;20422;-81
2022/02/05 07:39:00;;;;;;;4.50;2.57;;;3.20;99.90;;;;;;5087171;28;20469;-82
2022/02/05 07:41:26;;;;;;;6.20;2.70;;;3.20;99.90;;;;;;5092778;28;20489;-82
2022/02/05 07:43:52;;;;;;;6.30;2.83;;;3.20;99.90;;;;;;5092493;28;20396;-81
2022/02/05 07:46:18;;;;;;;5.68;3.00;;;3.20;99.90;;;;;;5101475;28;20409;-82
2022/02/05 07:48:43;;;;;;;6.80;3.40;;;3.20;99.90;;;;;;5091199;28;20737;-81
2022/02/05 07:51:09;;;;;;;6.60;3.70;;;3.10;99.90;;;;;;5095247;28;20377;-81
2022/02/05 07:53:36;;;;;;;9.88;4.82;;;3.30;99.90;;;;;;5094548;28;20372;-82
2022/02/05 07:56:03;;;;;;;9.07;4.50;;;3.30;99.90;;;;;;5098725;28;20383;-82
2022/02/05 07:58:28;;;;;;;9.23;4.50;;;3.40;99.90;;;;;;5089773;28;20976;-81
2022/02/05 08:00:54;;;;;;;7.87;3.47;;;3.30;99.90;;;;;;5089595;28;20416;-81
2022/02/05 08:03:20;;;;;;;7.90;3.60;;;3.20;99.90;;;;;;5090147;28;20479;-82
2022/02/05 08:05:46;;;;;;;7.07;3.70;;;3.20;99.90;;;;;;5094318;28;20473;-80
2022/02/05 08:08:15;;;;;;;4.88;2.83;;;3.20;99.90;;;;;;5110664;28;20428;-82
2022/02/05 08:11:04;;;;;;;6.60;3.80;;;3.30;99.90;;;;;;5107759;28;20386;-81
2022/02/05 08:13:32;;;;;;;10.98;4.15;;;3.40;99.90;;;;;;5091122;28;20392;-81
2022/02/05 08:16:10;;;;;;;8.52;3.55;;;3.60;99.90;;;;;;5112566;28;20432;-81
2022/02/05 08:18:37;;;;;;;8.85;3.45;;;3.70;99.90;;;;;;5101946;28;20459;-83
2022/02/05 08:21:03;;;;;;;10.70;3.78;;;3.90;99.90;;;;;;5073761;28;20854;-81
2022/02/05 08:23:28;;;;;;;6.60;2.83;;;4.00;99.90;;;;;;5102376;28;20387;-81
2022/02/05 08:25:55;;;;;;;5.57;2.13;;;4.20;99.90;;;;;;5108798;28;20876;-81
2022/02/05 08:28:21;;;;;;;6.15;2.20;;;4.30;99.90;;;;;;5101980;28;20373;-81
2022/02/05 08:30:47;;;;;;;7.65;2.58;;;4.30;99.90;;;;;;5090255;28;20380;-83
2022/02/05 08:33:13;;;;;;;5.78;2.50;;;4.30;99.90;;;;;;5091439;28;20439;-81
2022/02/05 08:35:38;;;;;;;5.63;2.42;;;4.30;99.90;;;;;;5091351;28;20441;-80
2022/02/05 08:38:04;;;;;;;6.70;2.50;;;4.30;99.90;;;;;;5091569;28;20457;-82
2022/02/05 08:40:30;;;;;;;5.78;2.38;;;4.30;99.90;;;;;;5093506;28;21263;-82
2022/02/05 08:42:56;;;;;;;7.28;2.58;;;4.30;99.90;;;;;;5102363;28;20401;-81
2022/02/05 08:45:22;;;;;;;7.60;2.80;;;4.20;99.90;;;;;;5094022;28;20414;-81
2022/02/05 08:47:48;;;;;;;8.20;2.85;;;4.20;99.90;;;;;;5110754;28;20432;-81
2022/02/05 08:50:13;;;;;;;5.72;2.30;;;4.40;99.90;;;;;;5110695;28;20390;-82
2022/02/05 08:52:40;;;;;;;6.13;2.40;;;4.40;99.90;;;;;;5102071;28;20385;-81
2022/02/05 08:55:07;;;;;;;5.47;2.37;;;4.40;99.90;;;;;;5097877;28;20399;-81
2022/02/05 08:57:35;;;;;;;5.80;2.50;;;4.50;99.90;;;;;;5107646;28;20384;-82
2022/02/05 09:00:11;;;;;;;6.88;2.70;;;4.50;99.90;;;;;;5105281;28;20380;-82
2022/02/05 09:03:00;;;;;;;4.90;2.60;;;4.70;99.90;;;;;;5079991;28;20905;-82
2022/02/05 09:07:54;;;;;;;6.45;2.80;;;4.80;99.90;;;;;;5091768;28;20388;-82
2022/02/05 09:10:35;;;;;;;7.43;3.17;;;4.90;99.90;;;;;;5091694;28;20439;-81
2022/02/05 09:13:13;;;;;;;8.55;3.17;;;4.80;99.90;;;;;;5099858;28;20428;-81
2022/02/05 09:15:39;;;;;;;6.90;3.10;;;5.00;99.90;;;;;;5091596;28;20449;-82
2022/02/05 09:18:05;;;;;;;6.13;2.87;;;5.10;99.90;;;;;;5089475;28;20401;-82
2022/02/05 09:20:31;;;;;;;6.23;2.73;;;5.10;99.90;;;;;;5089864;28;20367;-81
2022/02/05 09:22:57;;;;;;;8.73;3.30;;;5.20;99.90;;;;;;5103193;28;20466;-81
2022/02/05 09:25:23;;;;;;;8.68;3.40;;;5.10;99.90;;;;;;5073472;28;20948;-81
2022/02/05 09:27:50;;;;;;;9.27;3.00;;;5.30;99.90;;;;;;5093256;28;20388;-83
2022/02/05 09:30:17;;;;;;;6.32;2.85;;;5.50;99.90;;;;;;5100661;28;20393;-80
2022/02/05 09:32:44;;;;;;;7.63;3.25;;;5.60;99.90;;;;;;5085268;28;20412;-82
2022/02/05 09:35:12;;;;;;;7.68;3.45;;;5.50;99.90;;;;;;5100971;28;20449;-81
2022/02/05 09:37:38;;;;;;;7.27;3.23;;;5.40;99.90;;;;;;5114066;28;20387;-81
2022/02/05 09:40:05;;;;;;;8.60;2.93;;;5.40;99.90;;;;;;5113367;28;20868;-82
2022/02/05 09:42:31;;;;;;;9.07;3.10;;;5.40;99.90;;;;;;5099366;28;20374;-82
2022/02/05 09:45:02;;;;;;;8.27;3.22;;;5.40;99.90;;;;;;5113926;28;20398;-81
2022/02/05 09:47:28;;;;;;;10.03;3.83;;;5.40;99.90;;;;;;5112668;28;20872;-81
2022/02/05 09:49:54;;;;;;;8.98;3.30;;;5.40;99.90;;;;;;5093628;28;21014;-82
2022/02/05 09:52:25;;;;;;;8.50;3.40;;;5.40;99.90;;;;;;5089952;28;20475;-82
2022/02/05 09:54:51;;;;;;;8.63;3.90;;;5.40;99.90;;;;;;5094431;28;20392;-81
2022/02/05 09:57:19;;;;;;;11.37;3.77;;;5.50;99.90;;;;;;5110965;28;20408;-81
2022/02/05 09:59:57;;;;;;;10.45;3.60;;;5.70;99.90;;;;;;5112956;28;20401;-82
2022/02/05 10:02:31;;;;;;;10.10;3.57;;;5.70;99.90;;;;;;5108628;28;20602;-81
2022/02/05 10:05:04;;;;;;;10.07;3.75;;;5.70;99.90;;;;;;5114708;28;20406;-82
2022/02/05 10:07:36;;;;;;;7.53;3.53;;;5.70;99.90;;;;;;5089172;28;21212;-81
2022/02/05 10:10:06;;;;;;;9.55;3.38;;;5.80;99.90;;;;;;5109156;28;20387;-81
2022/02/05 10:12:32;;;;;;;10.75;3.55;;;5.80;99.90;;;;;;5098298;28;20394;-81
2022/02/05 10:15:00;;;;;;;10.90;3.55;;;5.90;99.90;;;;;;5107533;28;20389;-81
2022/02/05 10:17:36;;;;;;;12.53;4.40;;;6.00;99.90;;;;;;5087758;28;20477;-81
2022/02/05 10:20:03;;;;;;;10.57;4.10;;;6.10;99.90;;;;;;5092485;28;20385;-81
2022/02/05 10:22:36;;;;;;;9.32;3.70;;;6.20;99.90;;;;;;5103692;28;20399;-82
2022/02/05 10:25:18;;;;;;;14.70;4.20;;;6.40;99.90;;;;;;5112818;28;20887;-81
2022/02/05 10:27:46;;;;;;;11.40;3.83;;;6.40;99.90;;;;;;5112348;28;20396;-82
2022/02/05 10:30:14;;;;;;;7.67;3.17;;;6.40;99.90;;;;;;5075441;28;20713;-81
2022/02/05 10:32:46;;;;;;;10.43;3.50;;;6.50;99.90;;;;;;5077623;28;20454;-80
2022/02/05 10:37:43;;;;;;;10.82;3.50;;;6.30;99.90;;;;;;5114678;28;20390;-82
2022/02/05 10:40:12;;;;;;;15.35;4.72;;;6.30;99.90;;;;;;5111586;28;20385;-82
2022/02/05 10:45:29;;;;;;;14.40;3.92;;;6.10;99.90;;;;;;5114965;28;20395;-80
2022/02/05 10:47:58;;;;;;;11.35;3.85;;;6.10;99.90;;;;;;5112457;28;20422;-82
2022/02/05 10:50:30;;;;;;;9.38;3.13;;;6.20;99.90;;;;;;5103363;28;20393;-82
2022/02/05 10:53:08;;;;;;;14.97;4.27;;;6.10;99.90;;;;;;5117270;28;20370;-82
2022/02/05 10:55:57;;;;;;;10.45;3.20;;;6.20;99.90;;;;;;5086130;28;20796;-81
2022/02/05 11:05:15;;;;;;;12.37;3.73;;;6.30;99.90;;;;;;5094443;28;20384;-81
2022/02/05 11:06:20;;;;;;;14.37;3.80;;;6.20;99.90;;;;;;5114605;27;20376;-81
2022/02/05 11:08:46;;;;;;;13.65;3.72;;;6.10;99.90;;;;;;5114514;28;20516;-81
2022/02/05 11:14:03;;;;;;;14.25;4.10;;;5.90;99.90;;;;;;5115431;28;20986;-81
2022/02/05 11:19:13;;;;;;;13.45;3.60;;;6.20;99.90;;;;;;5113476;28;21029;-82
2022/02/05 11:21:40;;;;;;;13.55;4.78;;;6.50;99.90;;;;;;5095064;28;20738;-80
2022/02/05 11:24:07;;;;;;;14.85;3.67;;;6.70;99.90;;;;;;5113753;28;20482;-81
2022/02/05 11:26:33;;;;;;;12.80;4.13;;;6.80;99.90;;;;;;5113315;28;20374;-81
2022/02/05 11:29:04;;;;;;;13.47;4.10;;;6.90;99.90;;;;;;5095592;28;20374;-80
2022/02/05 11:34:19;;;;;;;12.88;4.43;;;7.00;99.90;;;;;;5113756;28;20940;-81
2022/02/05 11:36:56;;;;;;;15.97;4.63;;;7.20;99.90;;;;;;5114086;28;20860;-81
2022/02/05 11:39:22;;;;;;;16.07;4.67;;;7.20;99.90;;;;;;5099697;28;20891;-82
2022/02/05 11:41:47;;;;;;;14.93;4.77;;;7.20;99.90;;;;;;5112906;28;20374;-82
2022/02/05 11:44:32;;;;;;;14.17;4.50;;;7.30;99.90;;;;;;5114125;28;20422;-81
2022/02/05 11:47:06;;;;;;;15.32;5.22;;;7.40;99.90;;;;;;5113210;28;20469;-81
2022/02/05 11:49:52;;;;;;;13.65;4.78;;;7.40;99.90;;;;;;5111718;28;20398;-81
2022/02/05 11:52:44;;;;;;;15.45;4.47;;;7.50;99.90;;;;;;5040265;28;20392;-81
2022/02/05 11:55:33;;;;;;;13.70;3.80;;;7.80;99.90;;;;;;5083181;28;20392;-80
2022/02/05 11:58:07;;;;;;;15.70;4.07;;;8.00;99.90;;;;;;5101385;28;20382;-82
2022/02/05 12:00:41;;;;;;;15.65;4.47;;;7.90;99.90;;;;;;5111754;28;20761;-83
2022/02/05 12:03:24;;;;;;;11.52;3.88;;;7.80;99.90;;;;;;5093311;28;20883;-81
2022/02/05 12:05:54;;;;;;;15.30;4.32;;;7.50;99.90;;;;;;5095550;28;20396;-80
2022/02/05 12:08:34;;;;;;;14.20;4.03;;;7.20;99.90;;;;;;5096754;28;20380;-80
2022/02/05 12:11:03;;;;;;;15.63;4.68;;;7.10;99.90;;;;;;5101872;28;20393;-81
2022/02/05 12:13:40;;;;;;;17.00;4.20;;;7.10;99.90;;;;;;5126612;27;20489;-82
2022/02/05 12:16:06;;;;;;;14.15;4.20;;;7.20;99.90;;;;;;5115211;28;20418;-81
2022/02/05 12:19:12;;;;;;;19.33;4.43;;;7.10;99.90;;;;;;5099216;28;20405;-81
2022/02/05 12:21:53;;;;;;;15.25;4.30;;;7.10;99.90;;;;;;5113971;28;20379;-80
2022/02/05 12:24:34;;;;;;;14.80;4.28;;;7.10;99.90;;;;;;5092915;28;20396;-81
2022/02/05 12:27:01;;;;;;;13.48;4.03;;;7.00;99.90;;;;;;5096022;28;20467;-80
2022/02/05 12:29:29;;;;;;;16.38;3.78;;;7.20;99.90;;;;;;5101126;28;20379;-81
2022/02/05 12:31:56;;;;;;;16.55;3.70;;;7.20;99.90;;;;;;5095261;28;20385;-81
2022/02/05 12:34:22;;;;;;;10.90;3.97;;;7.20;99.90;;;;;;5115202;28;20822;-81
2022/02/05 12:36:50;;;;;;;12.45;3.67;;;7.20;99.90;;;;;;5105378;28;20467;-81
2022/02/05 12:39:30;;;;;;;12.07;3.55;;;7.10;99.90;;;;;;5108655;27;20878;-81
2022/02/05 12:42:01;;;;;;;12.50;3.92;;;7.30;99.90;;;;;;5096784;28;20371;-82
2022/02/05 12:44:29;;;;;;;12.38;4.07;;;7.30;99.90;;;;;;5087459;28;20894;-82
2022/02/05 12:47:34;;;;;;;11.45;3.65;;;7.40;99.90;;;;;;5074227;28;20908;-81
2022/02/05 12:50:14;;;;;;;9.45;3.40;;;7.40;99.90;;;;;;5080035;28;20392;-81
2022/02/05 12:52:46;;;;;;;11.27;3.63;;;7.30;99.90;;;;;;5073461;28;20372;-82
2022/02/05 12:55:25;;;;;;;16.23;4.32;;;7.30;99.90;;;;;;5085427;28;20963;-81
2022/02/05 12:58:02;;;;;;;13.57;3.75;;;7.30;99.90;;;;;;5092893;28;20367;-81
2022/02/05 13:00:28;;;;;;;13.15;3.90;;;7.30;99.90;;;;;;5108754;28;20428;-81
2022/02/05 13:02:54;;;;;;;15.60;4.00;;;7.30;99.90;;;;;;5112044;28;20371;-80
2022/02/05 13:05:33;;;;;;;13.07;3.73;;;7.10;99.90;;;;;;5094180;28;20757;-81
2022/02/05 13:08:00;;;;;;;8.60;3.13;;;7.10;99.90;;;;;;5116599;28;20767;-81
2022/02/05 13:10:41;;;;;;;10.85;3.20;;;7.10;99.90;;;;;;5097775;28;20429;-81
2022/02/05 13:13:08;;;;;;;11.80;3.25;;;7.20;99.90;;;;;;5108148;28;20380;-82
2022/02/05 13:15:36;;;;;;;13.75;3.40;;;7.00;99.90;;;;;;5097141;28;20375;-81
2022/02/05 13:18:18;;;;;;;10.75;3.42;;;6.80;99.90;;;;;;5117764;27;20439;-80
2022/02/05 13:26:28;;;;;;;11.73;3.30;;;6.60;99.90;;;;;;5117992;28;20432;-81
2022/02/05 13:34:16;;;;;;;9.80;3.80;;;6.80;99.90;;;;;;5098907;27;20435;-81
2022/02/05 13:42:06;;;;;;;16.05;3.90;;;7.00;99.90;;;;;;5139473;27;20381;-82
2022/02/05 13:47:22;;;;;;;9.55;3.33;;;6.90;99.90;;;;;;5124611;27;20392;-82
2022/02/05 13:50:22;;;;;;;12.70;6.35;;;7.00;99.90;;;;;;5115338;28;20391;-81
2022/02/05 13:53:02;;;;;;;14.13;6.43;;;6.90;99.90;;;;;;5115116;28;20451;-80
2022/02/05 13:55:31;;;;;;;13.73;6.03;;;6.80;99.90;;;;;;5096756;28;20386;-80
2022/02/05 13:58:04;;;;;;;11.35;5.32;;;6.70;99.90;;;;;;5112503;28;20379;-81
2022/02/05 14:00:49;;;;;;;11.18;5.28;;;6.60;99.90;;;;;;5113279;28;20374;-81
2022/02/05 14:03:36;;;;;;;10.73;4.55;;;6.70;99.90;;;;;;5112464;28;20410;-80
2022/02/05 14:06:08;;;;;;;15.02;4.00;;;6.60;99.90;;;;;;5113589;28;20391;-81
2022/02/05 14:08:41;;;;;;;11.95;3.78;;;6.50;99.90;;;;;;5115953;28;20398;-81
2022/02/05 14:11:08;;;;;;;13.17;4.00;;;6.40;99.90;;;;;;5097721;28;20398;-80
2022/02/05 14:13:35;;;;;;;11.75;3.70;;;6.50;99.90;;;;;;5114022;28;20407;-81
2022/02/05 14:16:02;;;;;;;11.18;3.28;;;6.60;99.90;;;;;;5097304;28;20451;-81
2022/02/05 14:18:30;;;;;;;11.32;3.58;;;6.50;99.90;;;;;;5113386;28;20367;-81
2022/02/05 14:21:01;;;;;;;12.00;3.70;;;6.60;99.90;;;;;;5114453;28;20379;-81
2022/02/05 14:23:32;;;;;;;10.88;3.05;;;6.60;99.90;;;;;;5115037;28;20375;-81
2022/02/05 14:28:48;;;;;;;14.45;6.55;;;6.60;99.90;;;;;;5115644;28;20370;-82
2022/02/05 14:31:20;;;;;;;12.00;6.05;;;6.70;99.90;;;;;;5113079;28;20379;-81
2022/02/05 14:34:04;;;;;;;12.45;4.22;;;6.70;99.90;;;;;;5114247;28;20469;-81
2022/02/05 14:41:57;;;;;;;13.50;3.28;;;6.60;99.90;;;;;;5112597;28;20866;-81
2022/02/05 14:44:23;;;;;;;9.05;3.08;;;6.80;99.90;;;;;;5115005;28;20756;-81
2022/02/05 14:46:49;;;;;;;12.60;4.00;;;6.80;99.90;;;;;;5113442;28;20449;-81
2022/02/05 14:49:15;;;;;;;11.43;3.67;;;6.80;99.90;;;;;;5094970;28;20547;-83
2022/02/05 14:51:42;;;;;;;12.90;3.95;;;6.80;99.90;;;;;;5115070;28;20794;-81
2022/02/05 14:54:10;;;;;;;12.85;3.85;;;6.70;99.90;;;;;;5093393;28;20367;-81
2022/02/05 14:56:36;;;;;;;9.30;3.45;;;6.70;99.90;;;;;;5115844;28;20367;-81
2022/02/05 14:59:04;;;;;;;10.75;3.63;;;6.70;99.90;;;;;;5096611;28;20378;-84
2022/02/05 15:01:30;;;;;;;11.48;3.42;;;6.70;99.90;;;;;;5098082;28;20377;-81
2022/02/05 15:03:57;;;;;;;12.52;3.20;;;6.60;99.90;;;;;;5115658;28;20416;-81
2022/02/05 15:06:26;;;;;;;9.85;3.45;;;6.50;99.90;;;;;;5097455;28;20817;-83
2022/02/05 15:08:56;;;;;;;9.23;3.17;;;6.50;99.90;;;;;;5098857;28;20383;-81
2022/02/05 15:11:23;;;;;;;12.07;3.28;;;6.50;99.90;;;;;;5113194;28;20435;-81
2022/02/05 15:13:49;;;;;;;11.68;3.10;;;6.40;99.90;;;;;;5112879;28;20833;-81
2022/02/05 15:16:17;;;;;;;11.07;3.63;;;6.40;99.90;;;;;;5113303;28;20876;-80
2022/02/05 15:18:57;;;;;;;9.70;3.05;;;6.40;99.90;;;;;;5089930;28;20986;-81
2022/02/05 15:21:31;;;;;;;11.63;3.47;;;6.40;99.90;;;;;;5107741;27;20393;-81
2022/02/05 15:23:59;;;;;;;11.15;3.65;;;6.30;99.90;;;;;;5087317;28;20399;-80
2022/02/05 15:26:28;;;;;;;12.05;3.42;;;6.30;99.90;;;;;;5112382;27;20878;-81
2022/02/05 15:28:56;;;;;;;11.18;3.13;;;6.30;99.90;;;;;;5099214;27;20533;-80
2022/02/05 15:31:22;;;;;;;12.68;3.53;;;6.20;99.90;;;;;;5088220;28;20445;-80
2022/02/05 15:33:51;;;;;;;9.35;3.33;;;6.20;99.90;;;;;;5103322;27;20485;-81
2022/02/05 15:44:11;;;;;;;9.47;3.07;;;6.10;99.90;;;;;;5105376;28;20487;-81
2022/02/05 15:46:37;;;;;;;11.27;3.60;;;6.00;99.90;;;;;;5080114;28;20376;-80
2022/02/05 15:49:03;;;;;;;10.70;3.50;;;6.00;99.90;;;;;;5091056;28;20397;-80
2022/02/05 15:51:30;;;;;;;9.27;3.45;;;6.00;99.90;;;;;;5092409;28;20761;-79
2022/02/05 15:54:00;;;;;;;12.63;3.80;;;5.90;99.90;;;;;;5092133;28;20395;-81
2022/02/05 15:58:55;;;;;;;8.27;3.05;;;5.90;99.90;;;;;;5099087;28;20397;-82
2022/02/05 16:01:21;;;;;;;10.70;3.70;;;5.90;99.90;;;;;;5090608;28;20372;-80